sensor_id;sensor_type;location;lat;lon;timestamp;P1;durP1;ratioP1;P2;durP2;ratioP2
12306;SDS011;6216;51.146;7.008;2024-02-16T00:02:09;2.20;;;1.40;;
12306;SDS011;6216;51.146;7.008;2024-02-16T00:04:39;3.27;;;1.20;;
12306;SDS011;6216;51.146;7.008;2024-02-16T00:07:07;3.60;;;1.40;;
12306;SDS011;6216;51.146;7.008;2024-02-16T00:09:35;1.20;;;1.10;;
12306;SDS011;6216;51.146;7.008;2024-02-16T00:12:04;2.47;;;1.20;;
12306;SDS011;6216;51.146;7.008;2024-02-16T00:14:32;3.03;;;1.30;;
12306;SDS011;6216;51.146;7.008;2024-02-16T00:17:01;2.63;;;1.23;;
12306;SDS011;6216;51.146;7.008;2024-02-16T00:19:29;2.17;;;1.20;;
12306;SDS011;6216;51.146;7.008;2024-02-16T00:21:59;2.67;;;1.20;;
12306;SDS011;6216;51.146;7.008;2024-02-16T00:24:27;2.30;;;1.23;;
12306;SDS011;6216;51.146;7.008;2024-02-16T00:26:58;2.67;;;1.50;;
12306;SDS011;6216;51.146;7.008;2024-02-16T00:29:26;3.83;;;1.30;;
12306;SDS011;6216;51.146;7.008;2024-02-16T00:31:54;1.97;;;1.20;;
12306;SDS011;6216;51.146;7.008;2024-02-16T00:34:23;3.50;;;1.20;;
12306;SDS011;6216;51.146;7.008;2024-02-16T00:36:51;3.53;;;1.53;;
12306;SDS011;6216;51.146;7.008;2024-02-16T00:39:20;1.53;;;1.00;;
12306;SDS011;6216;51.146;7.008;2024-02-16T00:41:49;2.03;;;1.17;;
12306;SDS011;6216;51.146;7.008;2024-02-16T00:44:17;2.60;;;1.03;;
12306;SDS011;6216;51.146;7.008;2024-02-16T00:46:45;3.63;;;1.27;;
12306;SDS011;6216;51.146;7.008;2024-02-16T00:49:14;1.33;;;1.03;;
12306;SDS011;6216;51.146;7.008;2024-02-16T00:51:42;2.93;;;1.03;;
12306;SDS011;6216;51.146;7.008;2024-02-16T00:54:10;2.87;;;1.47;;
12306;SDS011;6216;51.146;7.008;2024-02-16T00:56:40;2.40;;;1.20;;
12306;SDS011;6216;51.146;7.008;2024-02-16T00:59:08;1.53;;;1.03;;
12306;SDS011;6216;51.146;7.008;2024-02-16T01:01:37;2.83;;;1.33;;
12306;SDS011;6216;51.146;7.008;2024-02-16T01:04:05;2.43;;;1.73;;
12306;SDS011;6216;51.146;7.008;2024-02-16T01:06:34;2.23;;;1.50;;
12306;SDS011;6216;51.146;7.008;2024-02-16T01:09:02;2.57;;;1.17;;
12306;SDS011;6216;51.146;7.008;2024-02-16T01:11:31;2.27;;;1.10;;
12306;SDS011;6216;51.146;7.008;2024-02-16T01:14:01;1.93;;;1.20;;
12306;SDS011;6216;51.146;7.008;2024-02-16T01:16:29;3.17;;;1.13;;
12306;SDS011;6216;51.146;7.008;2024-02-16T01:18:57;2.80;;;1.47;;
12306;SDS011;6216;51.146;7.008;2024-02-16T01:21:26;2.93;;;1.40;;
12306;SDS011;6216;51.146;7.008;2024-02-16T01:23:54;1.93;;;1.17;;
12306;SDS011;6216;51.146;7.008;2024-02-16T01:26:25;1.17;;;0.77;;
12306;SDS011;6216;51.146;7.008;2024-02-16T01:28:53;1.80;;;1.03;;
12306;SDS011;6216;51.146;7.008;2024-02-16T01:31:23;2.83;;;1.33;;
12306;SDS011;6216;51.146;7.008;2024-02-16T01:33:52;3.23;;;1.37;;
12306;SDS011;6216;51.146;7.008;2024-02-16T01:36:20;3.43;;;1.50;;
12306;SDS011;6216;51.146;7.008;2024-02-16T01:38:49;1.40;;;1.07;;
12306;SDS011;6216;51.146;7.008;2024-02-16T01:41:17;3.70;;;1.20;;
12306;SDS011;6216;51.146;7.008;2024-02-16T01:43:45;2.33;;;1.33;;
12306;SDS011;6216;51.146;7.008;2024-02-16T01:46:13;2.10;;;1.20;;
12306;SDS011;6216;51.146;7.008;2024-02-16T01:48:43;2.20;;;1.20;;
12306;SDS011;6216;51.146;7.008;2024-02-16T01:51:11;2.87;;;1.30;;
12306;SDS011;6216;51.146;7.008;2024-02-16T01:53:40;1.27;;;1.10;;
12306;SDS011;6216;51.146;7.008;2024-02-16T01:56:08;1.37;;;1.00;;
12306;SDS011;6216;51.146;7.008;2024-02-16T01:58:36;1.47;;;0.90;;
12306;SDS011;6216;51.146;7.008;2024-02-16T02:01:04;2.10;;;1.00;;
12306;SDS011;6216;51.146;7.008;2024-02-16T02:03:33;2.37;;;1.00;;
12306;SDS011;6216;51.146;7.008;2024-02-16T02:06:03;1.30;;;1.07;;
12306;SDS011;6216;51.146;7.008;2024-02-16T02:08:31;6.70;;;1.50;;
12306;SDS011;6216;51.146;7.008;2024-02-16T02:10:59;1.80;;;1.23;;
12306;SDS011;6216;51.146;7.008;2024-02-16T02:13:28;4.23;;;1.13;;
12306;SDS011;6216;51.146;7.008;2024-02-16T02:15:57;2.50;;;1.37;;
12306;SDS011;6216;51.146;7.008;2024-02-16T02:18:25;3.40;;;1.33;;
12306;SDS011;6216;51.146;7.008;2024-02-16T02:20:54;4.63;;;1.33;;
12306;SDS011;6216;51.146;7.008;2024-02-16T02:23:23;2.83;;;1.40;;
12306;SDS011;6216;51.146;7.008;2024-02-16T02:25:52;2.77;;;1.00;;
12306;SDS011;6216;51.146;7.008;2024-02-16T02:28:20;2.63;;;1.13;;
12306;SDS011;6216;51.146;7.008;2024-02-16T02:30:50;1.50;;;1.20;;
12306;SDS011;6216;51.146;7.008;2024-02-16T02:33:19;3.67;;;1.10;;
12306;SDS011;6216;51.146;7.008;2024-02-16T02:35:48;3.00;;;1.17;;
12306;SDS011;6216;51.146;7.008;2024-02-16T02:38:17;1.87;;;1.10;;
12306;SDS011;6216;51.146;7.008;2024-02-16T02:40:47;1.37;;;1.27;;
12306;SDS011;6216;51.146;7.008;2024-02-16T02:43:16;1.30;;;0.90;;
12306;SDS011;6216;51.146;7.008;2024-02-16T02:45:45;2.30;;;1.10;;
12306;SDS011;6216;51.146;7.008;2024-02-16T02:48:13;1.37;;;0.93;;
12306;SDS011;6216;51.146;7.008;2024-02-16T02:50:42;2.90;;;1.13;;
12306;SDS011;6216;51.146;7.008;2024-02-16T02:53:10;1.60;;;1.00;;
12306;SDS011;6216;51.146;7.008;2024-02-16T02:55:38;4.07;;;1.27;;
12306;SDS011;6216;51.146;7.008;2024-02-16T02:58:08;2.57;;;1.10;;
12306;SDS011;6216;51.146;7.008;2024-02-16T03:00:36;5.77;;;1.67;;
12306;SDS011;6216;51.146;7.008;2024-02-16T03:03:05;2.80;;;1.40;;
12306;SDS011;6216;51.146;7.008;2024-02-16T03:05:33;4.03;;;1.10;;
12306;SDS011;6216;51.146;7.008;2024-02-16T03:08:01;2.70;;;1.30;;
12306;SDS011;6216;51.146;7.008;2024-02-16T03:10:30;2.10;;;1.63;;
12306;SDS011;6216;51.146;7.008;2024-02-16T03:13:01;3.37;;;1.20;;
12306;SDS011;6216;51.146;7.008;2024-02-16T03:15:31;2.30;;;1.03;;
12306;SDS011;6216;51.146;7.008;2024-02-16T03:17:59;4.30;;;1.20;;
12306;SDS011;6216;51.146;7.008;2024-02-16T03:20:28;4.93;;;1.33;;
12306;SDS011;6216;51.146;7.008;2024-02-16T03:22:57;2.43;;;1.57;;
12306;SDS011;6216;51.146;7.008;2024-02-16T03:25:25;1.27;;;0.93;;
12306;SDS011;6216;51.146;7.008;2024-02-16T03:27:53;3.03;;;1.30;;
12306;SDS011;6216;51.146;7.008;2024-02-16T03:30:21;3.50;;;1.20;;
12306;SDS011;6216;51.146;7.008;2024-02-16T03:32:51;3.93;;;1.40;;
12306;SDS011;6216;51.146;7.008;2024-02-16T03:35:19;4.70;;;1.50;;
12306;SDS011;6216;51.146;7.008;2024-02-16T03:37:48;3.40;;;1.70;;
12306;SDS011;6216;51.146;7.008;2024-02-16T03:40:16;1.87;;;1.27;;
12306;SDS011;6216;51.146;7.008;2024-02-16T03:42:44;2.87;;;1.20;;
12306;SDS011;6216;51.146;7.008;2024-02-16T03:45:13;5.97;;;1.60;;
12306;SDS011;6216;51.146;7.008;2024-02-16T03:47:41;2.50;;;1.13;;
12306;SDS011;6216;51.146;7.008;2024-02-16T03:50:11;2.20;;;1.10;;
12306;SDS011;6216;51.146;7.008;2024-02-16T03:52:41;1.57;;;1.10;;
12306;SDS011;6216;51.146;7.008;2024-02-16T03:55:09;4.70;;;1.60;;
12306;SDS011;6216;51.146;7.008;2024-02-16T03:57:37;2.90;;;1.40;;
12306;SDS011;6216;51.146;7.008;2024-02-16T04:00:06;5.50;;;1.37;;
12306;SDS011;6216;51.146;7.008;2024-02-16T04:02:35;4.00;;;1.60;;
12306;SDS011;6216;51.146;7.008;2024-02-16T04:05:03;2.00;;;0.90;;
12306;SDS011;6216;51.146;7.008;2024-02-16T04:07:35;5.90;;;1.40;;
12306;SDS011;6216;51.146;7.008;2024-02-16T04:10:04;2.20;;;1.10;;
12306;SDS011;6216;51.146;7.008;2024-02-16T04:12:33;3.87;;;1.33;;
12306;SDS011;6216;51.146;7.008;2024-02-16T04:15:02;2.83;;;1.43;;
12306;SDS011;6216;51.146;7.008;2024-02-16T04:17:31;3.50;;;1.27;;
12306;SDS011;6216;51.146;7.008;2024-02-16T04:19:59;2.33;;;1.20;;
12306;SDS011;6216;51.146;7.008;2024-02-16T04:22:27;2.80;;;1.97;;
12306;SDS011;6216;51.146;7.008;2024-02-16T04:24:58;1.70;;;1.17;;
12306;SDS011;6216;51.146;7.008;2024-02-16T04:27:26;3.23;;;1.30;;
12306;SDS011;6216;51.146;7.008;2024-02-16T04:29:54;3.97;;;1.40;;
12306;SDS011;6216;51.146;7.008;2024-02-16T04:32:23;2.10;;;1.10;;
12306;SDS011;6216;51.146;7.008;2024-02-16T04:34:52;1.27;;;1.07;;
12306;SDS011;6216;51.146;7.008;2024-02-16T04:37:22;2.77;;;1.43;;
12306;SDS011;6216;51.146;7.008;2024-02-16T04:39:51;3.13;;;1.50;;
12306;SDS011;6216;51.146;7.008;2024-02-16T04:42:21;1.67;;;1.30;;
12306;SDS011;6216;51.146;7.008;2024-02-16T04:44:49;3.67;;;1.63;;
12306;SDS011;6216;51.146;7.008;2024-02-16T04:47:17;1.60;;;1.40;;
12306;SDS011;6216;51.146;7.008;2024-02-16T04:49:46;4.27;;;1.90;;
12306;SDS011;6216;51.146;7.008;2024-02-16T04:52:14;3.63;;;1.60;;
12306;SDS011;6216;51.146;7.008;2024-02-16T04:54:42;2.17;;;1.17;;
12306;SDS011;6216;51.146;7.008;2024-02-16T04:57:10;2.43;;;1.13;;
12306;SDS011;6216;51.146;7.008;2024-02-16T04:59:40;2.77;;;1.67;;
12306;SDS011;6216;51.146;7.008;2024-02-16T05:02:08;3.37;;;1.77;;
12306;SDS011;6216;51.146;7.008;2024-02-16T05:04:36;2.73;;;1.37;;
12306;SDS011;6216;51.146;7.008;2024-02-16T05:07:05;4.40;;;1.53;;
12306;SDS011;6216;51.146;7.008;2024-02-16T05:09:34;4.50;;;1.30;;
12306;SDS011;6216;51.146;7.008;2024-02-16T05:12:02;2.53;;;1.50;;
12306;SDS011;6216;51.146;7.008;2024-02-16T05:14:31;6.60;;;1.50;;
12306;SDS011;6216;51.146;7.008;2024-02-16T05:17:00;1.73;;;1.13;;
12306;SDS011;6216;51.146;7.008;2024-02-16T05:19:31;2.70;;;1.37;;
12306;SDS011;6216;51.146;7.008;2024-02-16T05:22:00;3.33;;;1.23;;
12306;SDS011;6216;51.146;7.008;2024-02-16T05:24:28;2.87;;;1.30;;
12306;SDS011;6216;51.146;7.008;2024-02-16T05:26:57;3.03;;;1.70;;
12306;SDS011;6216;51.146;7.008;2024-02-16T05:29:25;2.67;;;1.67;;
12306;SDS011;6216;51.146;7.008;2024-02-16T05:31:53;1.87;;;1.70;;
12306;SDS011;6216;51.146;7.008;2024-02-16T05:34:23;2.37;;;1.20;;
12306;SDS011;6216;51.146;7.008;2024-02-16T05:36:52;3.03;;;1.63;;
12306;SDS011;6216;51.146;7.008;2024-02-16T05:39:20;4.23;;;1.60;;
12306;SDS011;6216;51.146;7.008;2024-02-16T05:41:53;3.17;;;1.40;;
12306;SDS011;6216;51.146;7.008;2024-02-16T05:44:22;2.23;;;1.60;;
12306;SDS011;6216;51.146;7.008;2024-02-16T05:46:50;4.20;;;1.63;;
12306;SDS011;6216;51.146;7.008;2024-02-16T05:49:18;3.47;;;1.27;;
12306;SDS011;6216;51.146;7.008;2024-02-16T05:51:48;6.17;;;1.60;;
12306;SDS011;6216;51.146;7.008;2024-02-16T05:54:43;4.17;;;1.60;;
12306;SDS011;6216;51.146;7.008;2024-02-16T05:57:12;2.07;;;1.33;;
12306;SDS011;6216;51.146;7.008;2024-02-16T05:59:40;4.50;;;1.80;;
12306;SDS011;6216;51.146;7.008;2024-02-16T06:02:09;2.63;;;1.47;;
12306;SDS011;6216;51.146;7.008;2024-02-16T06:04:38;2.80;;;1.10;;
12306;SDS011;6216;51.146;7.008;2024-02-16T06:07:08;4.60;;;1.73;;
12306;SDS011;6216;51.146;7.008;2024-02-16T06:09:37;4.10;;;1.77;;
12306;SDS011;6216;51.146;7.008;2024-02-16T06:12:06;3.33;;;1.60;;
12306;SDS011;6216;51.146;7.008;2024-02-16T06:14:35;3.00;;;1.40;;
12306;SDS011;6216;51.146;7.008;2024-02-16T06:17:04;1.77;;;1.50;;
12306;SDS011;6216;51.146;7.008;2024-02-16T06:19:32;2.33;;;1.40;;
12306;SDS011;6216;51.146;7.008;2024-02-16T06:22:00;3.60;;;1.67;;
12306;SDS011;6216;51.146;7.008;2024-02-16T06:24:30;3.67;;;1.50;;
12306;SDS011;6216;51.146;7.008;2024-02-16T06:26:58;2.03;;;1.50;;
12306;SDS011;6216;51.146;7.008;2024-02-16T06:29:26;2.30;;;1.50;;
12306;SDS011;6216;51.146;7.008;2024-02-16T06:31:56;2.80;;;1.33;;
12306;SDS011;6216;51.146;7.008;2024-02-16T06:34:24;2.33;;;1.47;;
12306;SDS011;6216;51.146;7.008;2024-02-16T06:36:53;4.20;;;1.57;;
12306;SDS011;6216;51.146;7.008;2024-02-16T06:39:21;2.57;;;1.67;;
12306;SDS011;6216;51.146;7.008;2024-02-16T06:41:51;2.87;;;1.53;;
12306;SDS011;6216;51.146;7.008;2024-02-16T06:44:19;4.07;;;1.60;;
12306;SDS011;6216;51.146;7.008;2024-02-16T06:46:50;2.27;;;1.37;;
12306;SDS011;6216;51.146;7.008;2024-02-16T06:49:21;3.30;;;1.60;;
12306;SDS011;6216;51.146;7.008;2024-02-16T06:51:49;2.80;;;1.60;;
12306;SDS011;6216;51.146;7.008;2024-02-16T06:54:17;3.03;;;1.70;;
12306;SDS011;6216;51.146;7.008;2024-02-16T06:56:45;2.23;;;1.17;;
12306;SDS011;6216;51.146;7.008;2024-02-16T06:59:15;2.73;;;1.63;;
12306;SDS011;6216;51.146;7.008;2024-02-16T07:01:43;3.87;;;1.50;;
12306;SDS011;6216;51.146;7.008;2024-02-16T07:04:12;3.40;;;1.93;;
12306;SDS011;6216;51.146;7.008;2024-02-16T07:06:41;2.43;;;1.40;;
12306;SDS011;6216;51.146;7.008;2024-02-16T07:09:09;2.10;;;1.40;;
12306;SDS011;6216;51.146;7.008;2024-02-16T07:11:40;2.77;;;1.53;;
12306;SDS011;6216;51.146;7.008;2024-02-16T07:14:08;2.00;;;1.47;;
12306;SDS011;6216;51.146;7.008;2024-02-16T07:16:38;2.40;;;1.30;;
12306;SDS011;6216;51.146;7.008;2024-02-16T07:19:06;2.20;;;1.67;;
12306;SDS011;6216;51.146;7.008;2024-02-16T07:21:35;4.67;;;1.60;;
12306;SDS011;6216;51.146;7.008;2024-02-16T07:24:03;3.23;;;1.50;;
12306;SDS011;6216;51.146;7.008;2024-02-16T07:26:32;3.17;;;1.40;;
12306;SDS011;6216;51.146;7.008;2024-02-16T07:29:00;3.93;;;1.70;;
12306;SDS011;6216;51.146;7.008;2024-02-16T07:31:31;2.57;;;1.60;;
12306;SDS011;6216;51.146;7.008;2024-02-16T07:34:01;4.10;;;1.77;;
12306;SDS011;6216;51.146;7.008;2024-02-16T07:36:30;3.60;;;1.70;;
12306;SDS011;6216;51.146;7.008;2024-02-16T07:39:00;2.67;;;1.50;;
12306;SDS011;6216;51.146;7.008;2024-02-16T07:41:30;2.57;;;1.33;;
12306;SDS011;6216;51.146;7.008;2024-02-16T07:44:00;3.63;;;1.40;;
12306;SDS011;6216;51.146;7.008;2024-02-16T07:46:28;2.10;;;1.63;;
12306;SDS011;6216;51.146;7.008;2024-02-16T07:49:02;5.40;;;2.00;;
12306;SDS011;6216;51.146;7.008;2024-02-16T07:51:31;4.13;;;1.73;;
12306;SDS011;6216;51.146;7.008;2024-02-16T07:53:59;2.80;;;1.30;;
12306;SDS011;6216;51.146;7.008;2024-02-16T07:56:28;4.93;;;1.30;;
12306;SDS011;6216;51.146;7.008;2024-02-16T07:58:56;2.33;;;1.57;;
12306;SDS011;6216;51.146;7.008;2024-02-16T08:01:24;1.60;;;1.20;;
12306;SDS011;6216;51.146;7.008;2024-02-16T08:03:53;3.43;;;1.70;;
12306;SDS011;6216;51.146;7.008;2024-02-16T08:06:25;2.47;;;1.90;;
12306;SDS011;6216;51.146;7.008;2024-02-16T08:08:54;4.97;;;2.03;;
12306;SDS011;6216;51.146;7.008;2024-02-16T08:11:23;3.33;;;1.70;;
12306;SDS011;6216;51.146;7.008;2024-02-16T08:13:52;2.40;;;1.40;;
12306;SDS011;6216;51.146;7.008;2024-02-16T08:16:21;4.27;;;1.60;;
12306;SDS011;6216;51.146;7.008;2024-02-16T08:18:49;3.47;;;1.40;;
12306;SDS011;6216;51.146;7.008;2024-02-16T08:21:18;2.87;;;1.63;;
12306;SDS011;6216;51.146;7.008;2024-02-16T08:23:48;4.27;;;1.83;;
12306;SDS011;6216;51.146;7.008;2024-02-16T08:26:17;3.93;;;1.50;;
12306;SDS011;6216;51.146;7.008;2024-02-16T08:28:45;3.70;;;1.47;;
12306;SDS011;6216;51.146;7.008;2024-02-16T08:31:14;3.00;;;1.63;;
12306;SDS011;6216;51.146;7.008;2024-02-16T08:33:44;7.20;;;2.03;;
12306;SDS011;6216;51.146;7.008;2024-02-16T08:36:13;1.97;;;1.47;;
12306;SDS011;6216;51.146;7.008;2024-02-16T08:38:42;1.97;;;1.43;;
12306;SDS011;6216;51.146;7.008;2024-02-16T08:41:12;3.20;;;1.30;;
12306;SDS011;6216;51.146;7.008;2024-02-16T08:43:40;5.03;;;1.73;;
12306;SDS011;6216;51.146;7.008;2024-02-16T08:46:08;2.43;;;1.40;;
12306;SDS011;6216;51.146;7.008;2024-02-16T08:48:36;2.00;;;1.53;;
12306;SDS011;6216;51.146;7.008;2024-02-16T08:51:05;2.20;;;1.30;;
12306;SDS011;6216;51.146;7.008;2024-02-16T08:53:33;3.00;;;1.63;;
12306;SDS011;6216;51.146;7.008;2024-02-16T08:56:02;6.03;;;2.10;;
12306;SDS011;6216;51.146;7.008;2024-02-16T08:58:31;3.30;;;1.50;;
12306;SDS011;6216;51.146;7.008;2024-02-16T09:00:59;3.87;;;1.67;;
12306;SDS011;6216;51.146;7.008;2024-02-16T09:03:28;2.03;;;1.60;;
12306;SDS011;6216;51.146;7.008;2024-02-16T09:05:59;3.97;;;1.93;;
12306;SDS011;6216;51.146;7.008;2024-02-16T09:08:27;3.53;;;1.40;;
12306;SDS011;6216;51.146;7.008;2024-02-16T09:10:59;2.37;;;1.47;;
12306;SDS011;6216;51.146;7.008;2024-02-16T09:13:32;2.47;;;1.57;;
12306;SDS011;6216;51.146;7.008;2024-02-16T09:16:06;4.10;;;2.00;;
12306;SDS011;6216;51.146;7.008;2024-02-16T09:18:34;3.43;;;1.40;;
12306;SDS011;6216;51.146;7.008;2024-02-16T09:21:03;4.80;;;1.93;;
12306;SDS011;6216;51.146;7.008;2024-02-16T09:23:32;5.37;;;2.10;;
12306;SDS011;6216;51.146;7.008;2024-02-16T09:26:00;6.13;;;1.57;;
12306;SDS011;6216;51.146;7.008;2024-02-16T09:28:28;4.77;;;1.70;;
12306;SDS011;6216;51.146;7.008;2024-02-16T09:30:58;4.83;;;1.77;;
12306;SDS011;6216;51.146;7.008;2024-02-16T09:33:26;2.73;;;1.80;;
12306;SDS011;6216;51.146;7.008;2024-02-16T09:35:55;4.73;;;1.63;;
12306;SDS011;6216;51.146;7.008;2024-02-16T09:38:23;3.80;;;1.60;;
12306;SDS011;6216;51.146;7.008;2024-02-16T09:40:51;3.97;;;1.60;;
12306;SDS011;6216;51.146;7.008;2024-02-16T09:43:26;4.13;;;2.07;;
12306;SDS011;6216;51.146;7.008;2024-02-16T09:45:55;2.73;;;1.50;;
12306;SDS011;6216;51.146;7.008;2024-02-16T09:48:25;4.23;;;1.80;;
12306;SDS011;6216;51.146;7.008;2024-02-16T09:50:54;5.93;;;1.80;;
12306;SDS011;6216;51.146;7.008;2024-02-16T09:53:24;3.53;;;1.87;;
12306;SDS011;6216;51.146;7.008;2024-02-16T09:55:53;3.33;;;1.77;;
12306;SDS011;6216;51.146;7.008;2024-02-16T09:58:21;2.83;;;1.53;;
12306;SDS011;6216;51.146;7.008;2024-02-16T10:00:50;2.80;;;1.57;;
12306;SDS011;6216;51.146;7.008;2024-02-16T10:03:23;4.27;;;1.57;;
12306;SDS011;6216;51.146;7.008;2024-02-16T10:06:03;3.33;;;1.60;;
12306;SDS011;6216;51.146;7.008;2024-02-16T10:08:32;6.80;;;1.87;;
12306;SDS011;6216;51.146;7.008;2024-02-16T10:11:01;3.47;;;1.53;;
12306;SDS011;6216;51.146;7.008;2024-02-16T10:13:30;4.33;;;1.70;;
12306;SDS011;6216;51.146;7.008;2024-02-16T10:16:05;4.67;;;1.80;;
12306;SDS011;6216;51.146;7.008;2024-02-16T10:18:35;2.43;;;1.87;;
12306;SDS011;6216;51.146;7.008;2024-02-16T10:21:05;3.93;;;1.53;;
12306;SDS011;6216;51.146;7.008;2024-02-16T10:23:34;3.53;;;1.73;;
12306;SDS011;6216;51.146;7.008;2024-02-16T10:26:09;3.77;;;1.70;;
12306;SDS011;6216;51.146;7.008;2024-02-16T10:28:37;4.97;;;1.63;;
12306;SDS011;6216;51.146;7.008;2024-02-16T10:31:08;3.20;;;1.90;;
12306;SDS011;6216;51.146;7.008;2024-02-16T10:33:37;4.90;;;1.67;;
12306;SDS011;6216;51.146;7.008;2024-02-16T10:36:08;3.67;;;1.60;;
12306;SDS011;6216;51.146;7.008;2024-02-16T10:38:37;9.67;;;2.10;;
12306;SDS011;6216;51.146;7.008;2024-02-16T10:41:06;2.53;;;1.67;;
12306;SDS011;6216;51.146;7.008;2024-02-16T10:43:35;3.83;;;1.80;;
12306;SDS011;6216;51.146;7.008;2024-02-16T10:46:03;4.00;;;1.67;;
12306;SDS011;6216;51.146;7.008;2024-02-16T10:48:31;3.33;;;1.53;;
12306;SDS011;6216;51.146;7.008;2024-02-16T10:51:00;7.73;;;1.50;;
12306;SDS011;6216;51.146;7.008;2024-02-16T10:53:30;3.90;;;1.83;;
12306;SDS011;6216;51.146;7.008;2024-02-16T10:55:59;4.27;;;1.93;;
12306;SDS011;6216;51.146;7.008;2024-02-16T10:58:28;4.23;;;1.73;;
12306;SDS011;6216;51.146;7.008;2024-02-16T11:00:57;3.87;;;1.77;;
12306;SDS011;6216;51.146;7.008;2024-02-16T11:03:25;4.63;;;2.07;;
12306;SDS011;6216;51.146;7.008;2024-02-16T11:05:55;2.70;;;1.90;;
12306;SDS011;6216;51.146;7.008;2024-02-16T11:08:25;3.03;;;1.90;;
12306;SDS011;6216;51.146;7.008;2024-02-16T11:11:00;2.00;;;1.40;;
12306;SDS011;6216;51.146;7.008;2024-02-16T11:13:32;4.50;;;1.80;;
12306;SDS011;6216;51.146;7.008;2024-02-16T11:16:01;3.13;;;1.70;;
12306;SDS011;6216;51.146;7.008;2024-02-16T11:18:30;2.70;;;1.93;;
12306;SDS011;6216;51.146;7.008;2024-02-16T11:21:02;2.27;;;1.60;;
12306;SDS011;6216;51.146;7.008;2024-02-16T11:23:31;3.40;;;1.83;;
12306;SDS011;6216;51.146;7.008;2024-02-16T11:26:02;3.70;;;2.20;;
12306;SDS011;6216;51.146;7.008;2024-02-16T11:28:34;2.67;;;1.63;;
12306;SDS011;6216;51.146;7.008;2024-02-16T11:31:03;6.67;;;2.00;;
12306;SDS011;6216;51.146;7.008;2024-02-16T11:33:32;4.33;;;1.90;;
12306;SDS011;6216;51.146;7.008;2024-02-16T11:36:01;7.13;;;2.23;;
12306;SDS011;6216;51.146;7.008;2024-02-16T11:38:30;4.50;;;2.07;;
12306;SDS011;6216;51.146;7.008;2024-02-16T11:41:00;2.27;;;1.50;;
12306;SDS011;6216;51.146;7.008;2024-02-16T11:43:30;3.03;;;1.90;;
12306;SDS011;6216;51.146;7.008;2024-02-16T11:45:59;4.23;;;2.00;;
12306;SDS011;6216;51.146;7.008;2024-02-16T11:48:38;4.73;;;1.97;;
12306;SDS011;6216;51.146;7.008;2024-02-16T11:51:07;3.90;;;1.90;;
12306;SDS011;6216;51.146;7.008;2024-02-16T11:53:35;3.03;;;2.10;;
12306;SDS011;6216;51.146;7.008;2024-02-16T11:56:04;4.83;;;2.33;;
12306;SDS011;6216;51.146;7.008;2024-02-16T11:58:33;4.90;;;2.03;;
12306;SDS011;6216;51.146;7.008;2024-02-16T12:01:03;4.93;;;1.87;;
12306;SDS011;6216;51.146;7.008;2024-02-16T12:03:40;3.73;;;2.17;;
12306;SDS011;6216;51.146;7.008;2024-02-16T12:06:09;4.40;;;1.97;;
12306;SDS011;6216;51.146;7.008;2024-02-16T12:08:47;4.07;;;1.87;;
12306;SDS011;6216;51.146;7.008;2024-02-16T12:11:18;4.43;;;2.07;;
12306;SDS011;6216;51.146;7.008;2024-02-16T12:13:54;5.37;;;2.20;;
12306;SDS011;6216;51.146;7.008;2024-02-16T12:16:22;4.80;;;2.17;;
12306;SDS011;6216;51.146;7.008;2024-02-16T12:18:50;3.50;;;1.97;;
12306;SDS011;6216;51.146;7.008;2024-02-16T12:21:19;4.33;;;2.00;;
12306;SDS011;6216;51.146;7.008;2024-02-16T12:23:48;3.73;;;1.80;;
12306;SDS011;6216;51.146;7.008;2024-02-16T12:26:16;5.73;;;2.10;;
12306;SDS011;6216;51.146;7.008;2024-02-16T12:28:44;2.30;;;2.10;;
12306;SDS011;6216;51.146;7.008;2024-02-16T12:31:18;6.87;;;2.13;;
12306;SDS011;6216;51.146;7.008;2024-02-16T12:33:47;2.60;;;1.90;;
12306;SDS011;6216;51.146;7.008;2024-02-16T12:36:16;6.37;;;2.27;;
12306;SDS011;6216;51.146;7.008;2024-02-16T12:38:44;3.67;;;2.27;;
12306;SDS011;6216;51.146;7.008;2024-02-16T12:41:13;4.27;;;2.27;;
12306;SDS011;6216;51.146;7.008;2024-02-16T12:43:41;5.37;;;2.37;;
12306;SDS011;6216;51.146;7.008;2024-02-16T12:46:09;4.60;;;2.73;;
12306;SDS011;6216;51.146;7.008;2024-02-16T12:48:39;7.17;;;3.47;;
12306;SDS011;6216;51.146;7.008;2024-02-16T12:51:09;6.43;;;3.23;;
12306;SDS011;6216;51.146;7.008;2024-02-16T12:53:37;4.43;;;2.73;;
12306;SDS011;6216;51.146;7.008;2024-02-16T12:56:07;4.13;;;2.93;;
12306;SDS011;6216;51.146;7.008;2024-02-16T12:58:36;5.50;;;3.10;;
12306;SDS011;6216;51.146;7.008;2024-02-16T13:01:04;4.43;;;3.13;;
12306;SDS011;6216;51.146;7.008;2024-02-16T13:03:46;8.23;;;3.90;;
12306;SDS011;6216;51.146;7.008;2024-02-16T13:06:15;6.03;;;3.93;;
12306;SDS011;6216;51.146;7.008;2024-02-16T13:08:43;8.03;;;3.97;;
12306;SDS011;6216;51.146;7.008;2024-02-16T13:11:12;9.47;;;4.70;;
12306;SDS011;6216;51.146;7.008;2024-02-16T13:13:40;7.53;;;4.27;;
12306;SDS011;6216;51.146;7.008;2024-02-16T13:16:08;7.97;;;4.47;;
12306;SDS011;6216;51.146;7.008;2024-02-16T13:18:37;10.07;;;4.67;;
12306;SDS011;6216;51.146;7.008;2024-02-16T13:21:07;10.83;;;3.80;;
12306;SDS011;6216;51.146;7.008;2024-02-16T13:23:35;9.67;;;4.30;;
12306;SDS011;6216;51.146;7.008;2024-02-16T13:26:03;8.47;;;4.53;;
12306;SDS011;6216;51.146;7.008;2024-02-16T13:28:32;10.10;;;4.60;;
12306;SDS011;6216;51.146;7.008;2024-02-16T13:31:00;6.33;;;4.43;;
12306;SDS011;6216;51.146;7.008;2024-02-16T13:33:29;10.97;;;5.07;;
12306;SDS011;6216;51.146;7.008;2024-02-16T13:35:57;7.13;;;4.20;;
12306;SDS011;6216;51.146;7.008;2024-02-16T13:38:27;11.67;;;5.30;;
12306;SDS011;6216;51.146;7.008;2024-02-16T13:40:55;8.17;;;5.23;;
12306;SDS011;6216;51.146;7.008;2024-02-16T13:43:24;9.37;;;5.03;;
12306;SDS011;6216;51.146;7.008;2024-02-16T13:45:53;9.23;;;4.87;;
12306;SDS011;6216;51.146;7.008;2024-02-16T13:48:24;12.03;;;4.93;;
12306;SDS011;6216;51.146;7.008;2024-02-16T13:50:53;9.23;;;4.03;;
12306;SDS011;6216;51.146;7.008;2024-02-16T13:53:23;10.60;;;4.60;;
12306;SDS011;6216;51.146;7.008;2024-02-16T13:55:55;6.87;;;4.43;;
12306;SDS011;6216;51.146;7.008;2024-02-16T13:58:27;5.83;;;4.43;;
12306;SDS011;6216;51.146;7.008;2024-02-16T14:00:55;12.67;;;5.17;;
12306;SDS011;6216;51.146;7.008;2024-02-16T14:03:23;12.30;;;5.10;;
12306;SDS011;6216;51.146;7.008;2024-02-16T14:05:52;7.87;;;4.50;;
12306;SDS011;6216;51.146;7.008;2024-02-16T14:08:20;8.57;;;4.60;;
12306;SDS011;6216;51.146;7.008;2024-02-16T14:10:48;8.83;;;4.40;;
12306;SDS011;6216;51.146;7.008;2024-02-16T14:13:18;11.23;;;4.27;;
12306;SDS011;6216;51.146;7.008;2024-02-16T14:15:47;8.93;;;4.63;;
12306;SDS011;6216;51.146;7.008;2024-02-16T14:18:16;11.43;;;4.67;;
12306;SDS011;6216;51.146;7.008;2024-02-16T14:20:59;6.93;;;4.63;;
12306;SDS011;6216;51.146;7.008;2024-02-16T14:23:29;10.40;;;4.60;;
12306;SDS011;6216;51.146;7.008;2024-02-16T14:25:57;11.87;;;5.03;;
12306;SDS011;6216;51.146;7.008;2024-02-16T14:28:27;9.97;;;5.40;;
12306;SDS011;6216;51.146;7.008;2024-02-16T14:30:55;7.80;;;4.73;;
12306;SDS011;6216;51.146;7.008;2024-02-16T14:33:23;5.77;;;4.53;;
12306;SDS011;6216;51.146;7.008;2024-02-16T14:35:59;7.57;;;4.73;;
12306;SDS011;6216;51.146;7.008;2024-02-16T14:38:28;6.23;;;4.30;;
12306;SDS011;6216;51.146;7.008;2024-02-16T14:40:56;7.93;;;4.37;;
12306;SDS011;6216;51.146;7.008;2024-02-16T14:43:30;6.30;;;4.50;;
12306;SDS011;6216;51.146;7.008;2024-02-16T14:45:59;6.80;;;4.70;;
12306;SDS011;6216;51.146;7.008;2024-02-16T14:48:27;8.80;;;5.77;;
12306;SDS011;6216;51.146;7.008;2024-02-16T14:50:56;4.73;;;4.33;;
12306;SDS011;6216;51.146;7.008;2024-02-16T14:53:24;6.30;;;4.63;;
12306;SDS011;6216;51.146;7.008;2024-02-16T14:55:53;4.40;;;4.07;;
12306;SDS011;6216;51.146;7.008;2024-02-16T14:58:22;6.97;;;4.13;;
12306;SDS011;6216;51.146;7.008;2024-02-16T15:00:51;8.83;;;5.23;;
12306;SDS011;6216;51.146;7.008;2024-02-16T15:03:20;5.80;;;4.67;;
12306;SDS011;6216;51.146;7.008;2024-02-16T15:05:49;5.83;;;4.53;;
12306;SDS011;6216;51.146;7.008;2024-02-16T15:08:17;6.43;;;5.03;;
12306;SDS011;6216;51.146;7.008;2024-02-16T15:10:45;7.33;;;5.40;;
12306;SDS011;6216;51.146;7.008;2024-02-16T15:13:14;6.17;;;4.67;;